Flight Track Log - Related Links

Times and Time Zones

All times are in EDT time to prevent confusion due to time zone crossing. See the N800K flight status page for this flight to view local times or setup timezone preferences in your user account.

Time Position Orientation Groundspeed Altitude Reporting Facility
EDT Latitude Longitude Course Direction KTS MPH feet Rate Location/Type
Wed 03:18:11 PM 37.6958 -87.0931 127° Southeast 106 122 2,900  Level Indianapolis Center
Wed 03:19:13 PM 37.6789 -87.0625 125° Southeast 106 122 3,900 919 Climbing Indianapolis Center
Wed 03:20:15 PM 37.6614 -87.0311 125° Southeast 106 122 4,800 919 Climbing Indianapolis Center
Wed 03:21:17 PM 37.6378 -86.9903 126° Southeast 116 133 5,800 816 Climbing Indianapolis Center
Wed 03:22:00 PM 37.5496 -86.8159 127° Southeast  Level FlightAware Approximate
Wed 03:22:20 PM 37.6172 -86.9533 125° Southeast 122 140 6,500  Level Indianapolis Center
Wed 03:23:00 PM 37.5208 -86.7680 127° Southeast  Level FlightAware Approximate
Wed 03:23:22 PM 37.5953 -86.9156 126° Southeast 127 146 7,000  Level Indianapolis Center
Wed 03:24:24 PM 37.5700 -86.8686 124° Southeast 149 171 7,000  Level Indianapolis Center
Wed 03:25:26 PM 37.5414 -86.8172 125° Southeast 169 194 7,000  Level Indianapolis Center
Wed 03:26:28 PM 37.5131 -86.7672 126° Southeast 173 199 7,000  Level Indianapolis Center
Wed 03:27:30 PM 37.4814 -86.7100 125° Southeast 172 198 7,000  Level Indianapolis Center
Wed 03:28:32 PM 37.4514 -86.6617 128° Southeast 170 196 7,000  Level Indianapolis Center
Wed 03:29:09 PM 37.4350 -86.6308 124° Southeast 173 199 7,000 60 Level Indianapolis Center
Wed 03:30:12 PM 37.4058 -86.5789 125° Southeast 176 203 7,100 48 Climbing Indianapolis Center
Wed 03:31:14 PM 37.3775 -86.5286 125° Southeast 177 204 7,100  Level Indianapolis Center
Wed 03:32:16 PM 37.3458 -86.4700 124° Southeast 177 204 7,100 -48 Level Indianapolis Center
Wed 03:33:18 PM 37.3161 -86.4197 127° Southeast 177 204 7,000 -48 Descending Indianapolis Center
Wed 03:34:20 PM 37.2864 -86.3675 126° Southeast 178 205 7,000  Level Indianapolis Center
Wed 03:35:22 PM 37.2567 -86.3189 128° Southeast 177 204 7,000  Level Indianapolis Center
Wed 03:36:24 PM 37.2269 -86.2681 126° Southeast 178 205 7,000  Level Indianapolis Center
Wed 03:37:26 PM 37.1969 -86.2175 127° Southeast 178 205 7,000  Level Indianapolis Center
Wed 03:38:28 PM 37.1683 -86.1667 125° Southeast 177 204 7,000 -48 Level Indianapolis Center
Wed 03:39:30 PM 37.1325 -86.1083 128° Southeast 178 205 6,900 -48 Descending Indianapolis Center
Wed 03:40:33 PM 37.1019 -86.0589 128° Southeast 178 205 6,900 48 Level Indianapolis Center
Wed 03:41:35 PM 37.0742 -86.0072 124° Southeast 178 205 7,000 48 Climbing Indianapolis Center
Wed 03:42:37 PM 37.0442 -85.9569 127° Southeast 178 205 7,000  Level Indianapolis Center
Wed 03:43:39 PM 37.0175 -85.9058 123° Southeast 178 205 7,000  Level Indianapolis Center
Wed 03:44:41 PM 36.9906 -85.8544 123° Southeast 177 204 7,000  Level Indianapolis Center
Wed 03:45:43 PM 36.9619 -85.8042 125° Southeast 177 204 7,000  Level Indianapolis Center
Wed 03:46:45 PM 36.9281 -85.7464 126° Southeast 177 204 7,000 48 Level Indianapolis Center
Wed 03:47:47 PM 36.8989 -85.6975 127° Southeast 176 203 7,100 48 Climbing Indianapolis Center
Wed 03:48:50 PM 36.8708 -85.6469 125° Southeast 176 203 7,100  Level Indianapolis Center
Wed 03:49:52 PM 36.8414 -85.5969 126° Southeast 176 203 7,100  Level Indianapolis Center
Wed 03:50:54 PM 36.8111 -85.5478 128° Southeast 176 203 7,100 -48 Level Indianapolis Center
Wed 03:51:56 PM 36.7819 -85.4989 127° Southeast 176 203 7,000 -48 Descending Indianapolis Center
Wed 03:52:58 PM 36.7525 -85.4503 127° Southeast 176 203 7,000  Level Indianapolis Center
Wed 03:54:00 PM 36.7178 -85.3922 127° Southeast 176 203 7,000  Level Indianapolis Center
Wed 03:55:02 PM 36.6900 -85.3442 126° Southeast 176 203 7,000  Level Indianapolis Center
Wed 03:56:04 PM 36.6603 -85.2953 127° Southeast 176 203 7,000  Level Indianapolis Center
Wed 03:57:06 PM 36.6333 -85.2469 125° Southeast 174 200 7,000 48 Level Indianapolis Center
Wed 03:58:08 PM 36.6042 -85.1983 127° Southeast 174 200 7,100  Climbing Indianapolis Center
Wed 03:59:11 PM 36.5761 -85.1531 128° Southeast 172 198 7,000 -48 Descending Indianapolis Center
Wed 04:00:13 PM 36.5483 -85.1039 125° Southeast 172 198 7,000  Level Indianapolis Center
Wed 04:01:15 PM 36.5131 -85.0464 127° Southeast 172 198 7,000  Level Indianapolis Center
Wed 04:02:17 PM 36.4847 -84.9969 125° Southeast 172 198 7,000  Level Indianapolis Center
Wed 04:03:19 PM 36.4567 -84.9475 125° Southeast 173 199 7,000  Level Indianapolis Center
Wed 04:04:21 PM 36.4272 -84.8992 127° Southeast 173 199 7,000  Level Indianapolis Center
Wed 04:05:23 PM 36.3981 -84.8489 126° Southeast 176 203 7,000  Level Indianapolis Center
Wed 04:06:25 PM 36.3689 -84.8008 127° Southeast 175 201 7,000  Level Indianapolis Center
Wed 04:07:27 PM 36.3339 -84.7406 126° Southeast 176 203 7,000  Level Indianapolis Center
Wed 04:08:29 PM 36.3053 -84.6914 126° Southeast 176 203 7,000  Level Indianapolis Center
Wed 04:09:32 PM 36.2747 -84.6439 129° Southeast 176 203 7,000  Level Indianapolis Center
Wed 04:10:34 PM 36.2456 -84.5953 127° Southeast 176 203 7,000  Level Indianapolis Center
Wed 04:11:36 PM 36.2167 -84.5461 126° Southeast 176 203 7,000  Level Indianapolis Center
Wed 04:12:38 PM 36.1878 -84.4969 126° Southeast 176 203 7,000  Level Indianapolis Center
Wed 04:13:40 PM 36.1572 -84.4492 128° Southeast 176 203 7,000  Level Indianapolis Center
Wed 04:14:42 PM 36.1228 -84.3897 126° Southeast 176 203 7,000  Level Indianapolis Center
Wed 04:15:44 PM 36.0933 -84.3414 127° Southeast 176 203 7,000  Level Indianapolis Center
Wed 04:16:46 PM 36.0622 -84.2944 129° Southeast 176 203 7,000 42 Level Indianapolis Center
Wed 04:18:07 PM 36.0186 -84.2286 129° Southeast 173 199 7,100 43 Climbing Atlanta Center
Wed 04:19:07 PM 35.9914 -84.1800 125° Southeast 173 199 7,100  Level Atlanta Center
Wed 04:20:07 PM 35.9811 -84.1258 103° East 160 184 7,100 175 Level Atlanta Center
Wed 04:30:31 PM 35.6906 -83.6400 129° Southeast 187 215 9,100 175 Climbing Atlanta Center
Wed 04:31:00 PM 35.6646 -83.6349 129° Southeast  Level FlightAware Approximate
Wed 04:31:31 PM 35.6569 -83.5914 130° Southeast 187 215 9,100  Level Atlanta Center
Wed 04:32:00 PM 35.6354 -83.5900 129° Southeast  Level FlightAware Approximate
Wed 04:32:31 PM 35.6256 -83.5406 127° Southeast 187 215 9,100  Level Atlanta Center
Wed 04:33:00 PM 35.6063 -83.5452 129° Southeast  Level FlightAware Approximate
Wed 04:33:31 PM 35.5939 -83.4922 129° Southeast 182 209 9,100  Level Atlanta Center
Wed 04:34:00 PM 35.5770 -83.5003 129° Southeast  Level FlightAware Approximate
Wed 04:34:31 PM 35.5644 -83.4414 125° Southeast 182 209 9,100  Level Atlanta Center
Wed 04:35:31 PM 35.5308 -83.3956 132° Southeast 182 209 9,100  Level Atlanta Center
Wed 04:36:31 PM 35.5014 -83.3450 126° Southeast 182 209 9,100  Level Atlanta Center
Wed 04:37:31 PM 35.4697 -83.2942 127° Southeast 182 209 9,100  Level Atlanta Center
Wed 04:38:31 PM 35.4383 -83.2461 129° Southeast 182 209 9,100 -50 Level Atlanta Center
Wed 04:39:31 PM 35.4025 -83.1928 129° Southeast 194 223 9,000 -50 Descending Atlanta Center
Wed 04:40:31 PM 35.3686 -83.1422 129° Southeast 194 223 9,000  Level Atlanta Center
Wed 04:41:31 PM 35.3369 -83.0942 129° Southeast 194 223 9,000 -50 Level Atlanta Center
Wed 04:42:31 PM 35.3033 -83.0411 128° Southeast 194 223 8,900 -50 Descending Atlanta Center
Wed 04:43:31 PM 35.2672 -82.9908 131° Southeast 194 223 8,900  Level Atlanta Center
Wed 04:44:31 PM 35.2356 -82.9428 129° Southeast 194 223 8,900 100 Level Atlanta Center
Wed 04:45:31 PM 35.1997 -82.8975 134° Southeast 189 217 9,100 100 Climbing Atlanta Center
Wed 04:46:31 PM 35.1678 -82.8419 125° Southeast 189 217 9,100 -300 Level Atlanta Center
Wed 04:47:31 PM 35.1339 -82.7917 129° Southeast 189 217 8,500 -600 Descending Atlanta Center
Wed 04:48:31 PM 35.0981 -82.7492 136° Southeast 189 217 7,900 -700 Descending Atlanta Center
Wed 04:49:31 PM 35.0725 -82.6911 118° Southeast 184 212 7,100 -450 Descending Atlanta Center
Wed 04:50:31 PM 35.0428 -82.6436 127° Southeast 178 205 7,000 -50 Descending Atlanta Center
Wed 04:51:31 PM 35.0150 -82.6033 130° Southeast 173 199 7,000 -300 Level Atlanta Center
Wed 04:52:31 PM 34.9853 -82.5556 127° Southeast 173 199 6,400 -850 Descending Atlanta Center
Wed 04:53:31 PM 34.9556 -82.5081 127° Southeast 178 205 5,300 -950 Descending Atlanta Center
Wed 04:54:31 PM 34.9339 -82.4578 118° Southeast 173 199 4,500 -1,050 Descending Atlanta Center
Wed 04:55:31 PM 34.9144 -82.4025 113° Southeast 168 193 3,200 2,250 Descending Atlanta Center
Wed 04:56:31 PM 34.8886 -82.3497 121° Southeast 168 193 9,000 5,800 Climbing Atlanta Center
Wed 04:59:00 PM 34.8479 -82.3500 129° Southeast  Level Estimated
Wed 05:06:00 PM 34.8479 -82.3500 North  Level Estimated
Wed 05:07:00 PM 34.8479 -82.3500 129° Southeast  Level Estimated

Login

Don't have an account? Register now (free) for customized features, flight alerts, and more!